createdAt,value
2018-02-16T00:00:12.696Z,80.30
2018-02-16T00:02:40.269Z,80.60
2018-02-16T00:05:07.818Z,80.60
2018-02-16T00:07:35.381Z,80.80
2018-02-16T00:10:02.909Z,80.80
2018-02-16T00:12:30.700Z,80.40
2018-02-16T00:14:58.437Z,80.60
2018-02-16T00:17:25.942Z,80.60
2018-02-16T00:19:53.727Z,81.00
2018-02-16T00:22:22.659Z,81.30
2018-02-16T00:24:51.024Z,81.20
2018-02-16T00:27:18.552Z,81.40
2018-02-16T00:29:46.835Z,81.70
2018-02-16T00:32:15.118Z,81.10
2018-02-16T00:34:42.624Z,81.10
2018-02-16T00:37:10.890Z,81.30
2018-02-16T00:39:39.526Z,81.50
2018-02-16T00:42:07.080Z,81.60
2018-02-16T00:44:35.087Z,81.30
2018-02-16T00:47:02.609Z,81.40
2018-02-16T00:49:30.144Z,81.40
2018-02-16T00:51:57.652Z,81.50
2018-02-16T00:54:25.190Z,81.20
2018-02-16T00:56:52.743Z,80.80
2018-02-16T00:59:20.336Z,81.00
2018-02-16T01:01:47.827Z,81.20
2018-02-16T01:04:15.602Z,81.30
2018-02-16T01:06:43.448Z,81.40
2018-02-16T01:09:11.027Z,81.20
2018-02-16T01:11:38.541Z,81.30
2018-02-16T01:14:06.273Z,81.00
2018-02-16T01:16:33.794Z,81.10
2018-02-16T01:19:01.325Z,80.90
2018-02-16T01:21:28.905Z,81.00
2018-02-16T01:23:56.408Z,80.60
2018-02-16T01:26:23.942Z,80.70
2018-02-16T01:28:51.463Z,80.80
2018-02-16T01:31:18.983Z,80.90
2018-02-16T01:33:46.876Z,80.90
2018-02-16T01:36:15.186Z,81.80
2018-02-16T01:38:42.686Z,81.80
2018-02-16T01:41:10.183Z,82.70
2018-02-16T01:43:38.438Z,84.20
2018-02-16T01:46:06.760Z,84.90
2018-02-16T01:48:34.321Z,84.90
2018-02-16T01:51:01.836Z,85.10
2018-02-16T01:53:30.243Z,85.30
2018-02-16T01:55:57.764Z,85.20
2018-02-16T01:58:25.322Z,84.90
2018-02-16T02:00:52.838Z,84.50
2018-02-16T02:03:20.401Z,84.00
2018-02-16T02:05:47.936Z,83.60
2018-02-16T02:08:15.448Z,83.50
2018-02-16T02:10:42.974Z,83.40
2018-02-16T02:13:10.588Z,83.10
2018-02-16T02:15:38.259Z,82.90
2018-02-16T02:18:06.682Z,82.40
2018-02-16T02:20:34.252Z,82.40
2018-02-16T02:23:01.790Z,82.30
2018-02-16T02:25:29.508Z,82.30
2018-02-16T02:27:57.105Z,82.40
2018-02-16T02:30:24.697Z,82.40
2018-02-16T02:32:52.932Z,82.20
2018-02-16T02:35:20.450Z,82.00
2018-02-16T02:37:48.083Z,82.30
2018-02-16T02:40:15.602Z,82.10
2018-02-16T02:42:43.912Z,81.70
2018-02-16T02:45:11.422Z,81.70
2018-02-16T02:47:40.379Z,80.90
2018-02-16T02:50:07.897Z,81.30
2018-02-16T02:52:35.580Z,81.30
2018-02-16T02:55:03.116Z,81.20
2018-02-16T02:57:30.640Z,81.00
2018-02-16T02:59:58.155Z,80.90
2018-02-16T03:02:25.691Z,80.90
2018-02-16T03:04:53.971Z,81.00
2018-02-16T03:07:22.140Z,81.00
2018-02-16T03:09:50.442Z,80.90
2018-02-16T03:12:17.947Z,80.90
2018-02-16T03:14:45.494Z,80.60
2018-02-16T03:17:12.997Z,80.60
2018-02-16T03:19:40.594Z,80.80
2018-02-16T03:22:08.174Z,80.80
2018-02-16T03:24:35.706Z,80.90
2018-02-16T03:27:03.206Z,80.60
2018-02-16T03:29:30.915Z,80.70
2018-02-16T03:31:58.952Z,80.80
2018-02-16T03:34:26.502Z,80.80
2018-02-16T03:36:54.807Z,80.90
2018-02-16T03:39:22.313Z,80.90
2018-02-16T03:41:50.535Z,80.80
2018-02-16T03:44:18.928Z,80.60
2018-02-16T03:46:46.504Z,80.60
2018-02-16T03:49:15.436Z,80.80
2018-02-16T03:51:43.042Z,80.80
2018-02-16T03:54:11.494Z,80.90
2018-02-16T03:56:39.013Z,80.90
2018-02-16T03:59:06.528Z,80.60
2018-02-16T04:01:34.890Z,80.50
2018-02-16T04:04:02.408Z,80.50
2018-02-16T04:06:29.956Z,80.30
2018-02-16T04:08:57.492Z,80.20
2018-02-16T04:11:25.236Z,80.30
2018-02-16T04:13:53.532Z,80.40
2018-02-16T04:16:21.039Z,80.40
2018-02-16T04:18:48.673Z,80.70
2018-02-16T04:21:16.840Z,81.10
2018-02-16T04:23:44.432Z,81.50
2018-02-16T04:26:11.998Z,81.80
2018-02-16T04:28:39.568Z,82.40
2018-02-16T04:31:07.176Z,82.90
2018-02-16T04:33:34.706Z,83.50
2018-02-16T04:36:02.255Z,84.20
2018-02-16T04:38:29.789Z,84.80
2018-02-16T04:40:57.282Z,85.50
2018-02-16T04:43:24.975Z,86.00
2018-02-16T04:45:52.878Z,86.40
2018-02-16T04:48:21.218Z,87.40
2018-02-16T04:50:48.739Z,87.40
2018-02-16T04:53:16.540Z,87.70
2018-02-16T04:55:45.611Z,88.40
2018-02-16T04:58:13.222Z,88.40
2018-02-16T05:00:40.862Z,88.70
2018-02-16T05:03:08.420Z,89.30
2018-02-16T05:05:35.981Z,89.70
2018-02-16T05:08:03.559Z,89.70
2018-02-16T05:10:31.097Z,89.70
2018-02-16T05:12:58.783Z,89.90
2018-02-16T05:15:26.717Z,90.00
2018-02-16T05:17:54.599Z,90.00
2018-02-16T05:20:22.111Z,90.00
2018-02-16T05:22:49.606Z,90.00
2018-02-16T05:25:17.359Z,90.10
2018-02-16T05:27:46.161Z,90.10
2018-02-16T05:30:13.683Z,90.10
2018-02-16T05:32:41.200Z,90.00
2018-02-16T05:35:08.745Z,90.00
2018-02-16T05:37:36.265Z,90.20
2018-02-16T05:40:03.906Z,90.30
2018-02-16T05:42:31.616Z,90.30
2018-02-16T05:44:59.900Z,90.50
2018-02-16T05:47:28.099Z,90.50
2018-02-16T05:49:55.838Z,90.50
2018-02-16T05:52:24.160Z,90.60
2018-02-16T05:54:51.669Z,90.60
2018-02-16T05:57:19.188Z,90.60
2018-02-16T05:59:47.707Z,90.70
2018-02-16T06:02:15.992Z,90.70
2018-02-16T06:04:43.630Z,90.70
2018-02-16T06:07:11.460Z,90.70
2018-02-16T06:09:38.971Z,90.70
2018-02-16T06:12:07.273Z,90.80
2018-02-16T06:14:34.853Z,90.80
2018-02-16T06:17:02.435Z,90.80
2018-02-16T06:19:30.134Z,90.70
2018-02-16T06:21:58.459Z,90.50
2018-02-16T06:24:26.004Z,90.50
2018-02-16T06:26:53.565Z,90.40
2018-02-16T06:29:21.098Z,90.40
2018-02-16T06:31:48.673Z,90.30
2018-02-16T06:34:16.232Z,90.30
2018-02-16T06:36:43.764Z,90.20
2018-02-16T06:39:11.448Z,90.10
2018-02-16T06:41:39.062Z,90.10
2018-02-16T06:44:06.788Z,90.00
2018-02-16T06:46:34.555Z,89.60
2018-02-16T06:49:02.224Z,89.30
2018-02-16T06:51:29.764Z,89.00
2018-02-16T06:53:57.336Z,88.10
2018-02-16T06:56:24.894Z,87.00
2018-02-16T06:58:52.410Z,86.40
2018-02-16T07:01:19.955Z,86.20
2018-02-16T07:03:47.471Z,84.60
2018-02-16T07:06:15.026Z,84.00
2018-02-16T07:08:42.535Z,82.60
2018-02-16T07:11:10.072Z,81.20
2018-02-16T07:13:37.708Z,80.40
2018-02-16T07:16:05.274Z,79.00
2018-02-16T07:18:33.235Z,77.80
2018-02-16T07:21:00.742Z,76.90
2018-02-16T07:23:29.087Z,74.70
2018-02-16T07:25:56.738Z,74.10
2018-02-16T07:28:24.565Z,72.00
2018-02-16T07:30:52.107Z,71.40
2018-02-16T07:33:19.771Z,70.30
2018-02-16T07:35:47.331Z,69.60
2018-02-16T07:38:14.991Z,69.70
2018-02-16T07:40:42.923Z,68.80
2018-02-16T07:43:11.819Z,68.90
2018-02-16T07:45:39.478Z,68.20
2018-02-16T07:48:07.086Z,67.80
2018-02-16T07:50:34.644Z,68.40
2018-02-16T07:53:02.255Z,67.80
2018-02-16T07:55:29.840Z,67.30
2018-02-16T07:57:57.333Z,67.30
2018-02-16T08:00:26.056Z,66.90
2018-02-16T08:02:53.714Z,66.10
2018-02-16T08:05:21.436Z,66.20
2018-02-16T08:07:49.201Z,66.30
2018-02-16T08:10:17.209Z,66.10
2018-02-16T08:12:44.770Z,65.00
2018-02-16T08:15:12.360Z,63.80
2018-02-16T08:17:39.877Z,64.20
2018-02-16T08:20:08.189Z,63.20
2018-02-16T08:22:35.740Z,63.10
2018-02-16T08:25:03.453Z,62.80
2018-02-16T08:27:32.044Z,62.00
2018-02-16T08:30:01.362Z,63.10
2018-02-16T08:32:29.251Z,63.20
2018-02-16T08:34:56.748Z,62.20
2018-02-16T08:37:24.365Z,62.00
2018-02-16T08:39:51.890Z,61.40
2018-02-16T08:42:19.487Z,61.70
2018-02-16T08:44:46.987Z,61.70
2018-02-16T08:47:14.680Z,60.80
2018-02-16T08:49:43.316Z,61.80
2018-02-16T08:52:11.740Z,61.80
2018-02-16T08:54:39.332Z,60.50
2018-02-16T08:57:06.927Z,60.60
2018-02-16T08:59:34.472Z,60.30
2018-02-16T09:02:02.528Z,59.90
2018-02-16T09:04:30.246Z,61.60
2018-02-16T09:06:58.087Z,60.00
2018-02-16T09:09:26.126Z,60.50
2018-02-16T09:11:54.530Z,62.50
2018-02-16T09:14:22.234Z,62.10
2018-02-16T09:16:49.854Z,62.30
2018-02-16T09:19:18.384Z,60.20
2018-02-16T09:21:45.936Z,60.20
2018-02-16T09:24:14.236Z,62.00
2018-02-16T09:26:41.916Z,62.00
2018-02-16T09:29:09.760Z,61.00
2018-02-16T09:31:38.117Z,61.30
2018-02-16T09:34:05.923Z,61.20
2018-02-16T09:36:34.058Z,63.90
2018-02-16T09:39:05.452Z,60.10
2018-02-16T09:41:32.959Z,60.50
2018-02-16T09:44:00.884Z,61.60
2018-02-16T09:46:28.422Z,60.60
2018-02-16T09:48:56.675Z,62.00
2018-02-16T09:51:24.224Z,60.80
2018-02-16T09:53:52.554Z,60.40
2018-02-16T09:56:20.075Z,60.30
2018-02-16T09:58:48.289Z,61.10
2018-02-16T10:01:15.849Z,60.20
2018-02-16T10:03:43.389Z,60.20
2018-02-16T10:06:10.970Z,61.30
2018-02-16T10:08:38.546Z,59.80
2018-02-16T10:11:06.102Z,59.50
2018-02-16T10:13:33.680Z,62.50
2018-02-16T10:16:02.618Z,61.10
2018-02-16T10:18:30.929Z,58.70
2018-02-16T10:20:58.635Z,58.70
2018-02-16T10:23:26.213Z,57.90
2018-02-16T10:25:53.741Z,57.60
2018-02-16T10:28:21.291Z,57.60
2018-02-16T10:30:49.631Z,57.40
2018-02-16T10:33:17.523Z,57.60
2018-02-16T10:35:45.893Z,57.30
2018-02-16T10:38:13.435Z,55.10
2018-02-16T10:40:40.971Z,54.60
2018-02-16T10:43:09.926Z,53.60
2018-02-16T10:45:37.453Z,53.60
2018-02-16T10:48:05.008Z,53.40
2018-02-16T10:50:33.344Z,52.30
2018-02-16T10:53:00.877Z,52.90
2018-02-16T10:55:29.621Z,53.10
2018-02-16T10:57:57.135Z,53.10
2018-02-16T11:00:32.020Z,53.50
2018-02-16T11:03:05.353Z,53.80
2018-02-16T11:05:39.272Z,54.80
2018-02-16T11:08:13.236Z,57.50
2018-02-16T11:10:40.927Z,57.50
2018-02-16T11:13:08.440Z,58.70
2018-02-16T11:15:36.736Z,59.30
2018-02-16T11:18:04.284Z,59.30
2018-02-16T11:20:31.840Z,59.70
2018-02-16T11:22:59.397Z,59.60
2018-02-16T11:25:28.342Z,60.00
2018-02-16T11:27:56.363Z,60.00
2018-02-16T11:30:24.476Z,59.80
2018-02-16T11:32:52.006Z,58.60
2018-02-16T11:35:19.754Z,58.70
2018-02-16T11:37:48.799Z,57.30
2018-02-16T11:40:16.630Z,58.10
2018-02-16T11:42:43.908Z,56.70
2018-02-16T11:45:11.504Z,56.00
2018-02-16T11:47:39.725Z,55.40
2018-02-16T11:50:07.594Z,55.70
2018-02-16T11:52:35.124Z,55.20
2018-02-16T11:55:03.414Z,55.70
2018-02-16T11:57:30.955Z,55.70
2018-02-16T11:59:59.303Z,56.50
2018-02-16T12:02:27.051Z,56.50
2018-02-16T12:04:54.907Z,56.70
2018-02-16T12:07:22.448Z,57.10
2018-02-16T12:09:51.059Z,56.90
2018-02-16T12:12:18.741Z,55.00
2018-02-16T12:14:46.538Z,55.40
2018-02-16T12:17:14.131Z,53.00
2018-02-16T12:19:41.837Z,53.80
2018-02-16T12:22:09.539Z,54.10
2018-02-16T12:24:37.116Z,54.30
2018-02-16T12:27:05.117Z,54.10
2018-02-16T12:29:32.875Z,54.40
2018-02-16T12:32:00.399Z,54.60
2018-02-16T12:34:28.688Z,53.80
2018-02-16T12:36:56.204Z,54.00
2018-02-16T12:39:23.751Z,54.50
2018-02-16T12:41:52.286Z,53.80
2018-02-16T12:44:20.055Z,53.90
2018-02-16T12:46:47.824Z,53.20
2018-02-16T12:49:15.361Z,53.00
2018-02-16T12:51:44.133Z,52.70
2018-02-16T12:54:11.757Z,51.90
2018-02-16T12:56:39.324Z,51.70
2018-02-16T12:59:06.948Z,50.50
2018-02-16T13:01:34.543Z,51.10
2018-02-16T13:04:02.068Z,50.40
2018-02-16T13:06:29.910Z,50.50
2018-02-16T13:08:58.202Z,48.20
2018-02-16T13:11:25.762Z,48.20
2018-02-16T13:13:53.284Z,48.50
2018-02-16T13:16:21.243Z,47.50
2018-02-16T13:18:49.737Z,50.10
2018-02-16T13:21:17.667Z,49.40
2018-02-16T13:23:45.223Z,47.80
2018-02-16T13:26:12.982Z,50.50
2018-02-16T13:28:40.510Z,47.20
2018-02-16T13:31:08.036Z,48.50
2018-02-16T13:33:35.573Z,48.00
2018-02-16T13:36:03.103Z,49.00
2018-02-16T13:38:30.700Z,47.80
2018-02-16T13:40:58.556Z,48.30
2018-02-16T13:43:26.538Z,49.20
2018-02-16T13:45:55.110Z,46.70
2018-02-16T13:48:22.655Z,46.60
2018-02-16T13:50:50.198Z,46.50
2018-02-16T13:53:17.723Z,46.90
2018-02-16T13:55:45.301Z,45.70
2018-02-16T13:58:13.131Z,46.30
2018-02-16T14:00:40.670Z,45.40
2018-02-16T14:03:08.378Z,44.70
2018-02-16T14:05:35.976Z,45.80
2018-02-16T14:08:03.522Z,46.40
2018-02-16T14:10:31.305Z,46.90
2018-02-16T14:12:58.859Z,47.80
2018-02-16T14:15:26.400Z,49.60
2018-02-16T14:17:54.699Z,49.40
2018-02-16T14:20:22.358Z,49.30
2018-02-16T14:22:49.940Z,48.90
2018-02-16T14:25:17.490Z,49.10
2018-02-16T14:27:44.991Z,50.20
2018-02-16T14:30:12.748Z,49.30
2018-02-16T14:32:40.556Z,50.20
2018-02-16T14:35:08.086Z,51.40
2018-02-16T14:37:35.717Z,51.20
2018-02-16T14:40:03.300Z,51.70
2018-02-16T14:42:31.029Z,52.30
2018-02-16T14:44:58.588Z,52.40
2018-02-16T14:47:26.203Z,52.60
2018-02-16T14:49:53.893Z,52.80
2018-02-16T14:52:21.482Z,52.50
2018-02-16T14:54:49.090Z,52.80
2018-02-16T14:57:17.476Z,54.10
2018-02-16T14:59:44.984Z,54.10
2018-02-16T15:02:12.545Z,54.10
2018-02-16T15:04:40.874Z,53.80
2018-02-16T15:07:09.167Z,53.90
2018-02-16T15:09:36.712Z,55.20
2018-02-16T15:12:04.246Z,56.00
2018-02-16T15:14:32.003Z,55.60
2018-02-16T15:16:59.752Z,54.80
2018-02-16T15:19:27.373Z,55.60
2018-02-16T15:21:55.750Z,55.70
2018-02-16T15:24:23.413Z,55.70
2018-02-16T15:26:50.952Z,55.70
2018-02-16T15:29:19.952Z,55.50
2018-02-16T15:31:49.164Z,55.70
2018-02-16T15:34:17.468Z,56.10
2018-02-16T15:36:45.295Z,56.10
2018-02-16T15:39:13.581Z,56.90
2018-02-16T15:41:41.270Z,56.90
2018-02-16T15:44:08.777Z,56.90
2018-02-16T15:46:36.311Z,57.10
2018-02-16T15:49:04.606Z,57.00
2018-02-16T15:51:32.127Z,57.10
2018-02-16T15:53:59.677Z,58.20
2018-02-16T15:56:27.865Z,58.20
2018-02-16T15:58:55.509Z,57.60
2018-02-16T16:01:23.160Z,57.70
2018-02-16T16:03:50.844Z,57.90
2018-02-16T16:06:18.402Z,58.00
2018-02-16T16:08:45.963Z,58.70
2018-02-16T16:11:13.537Z,58.50
2018-02-16T16:13:41.045Z,58.50
2018-02-16T16:16:09.368Z,58.30
2018-02-16T16:18:36.898Z,58.30
2018-02-16T16:21:04.580Z,58.40
2018-02-16T16:23:32.166Z,59.00
2018-02-16T16:25:59.843Z,59.00
2018-02-16T16:28:27.408Z,59.40
2018-02-16T16:30:54.988Z,59.40
2018-02-16T16:33:23.249Z,60.50
2018-02-16T16:35:50.995Z,60.50
2018-02-16T16:38:18.500Z,60.70
2018-02-16T16:40:46.919Z,60.90
2018-02-16T16:43:15.207Z,61.60
2018-02-16T16:45:42.773Z,61.40
2018-02-16T16:48:10.327Z,61.70
2018-02-16T16:50:37.984Z,62.10
2018-02-16T16:53:05.605Z,62.50
2018-02-16T16:55:33.891Z,63.50
2018-02-16T16:58:01.518Z,63.50
2018-02-16T17:00:29.917Z,64.80
2018-02-16T17:02:57.424Z,64.80
2018-02-16T17:05:24.950Z,65.30
2018-02-16T17:07:52.475Z,65.80
2018-02-16T17:10:20.036Z,66.10
2018-02-16T17:12:47.835Z,66.60
2018-02-16T17:15:15.411Z,66.90
2018-02-16T17:17:43.184Z,67.00
2018-02-16T17:20:10.923Z,67.20
2018-02-16T17:22:38.433Z,66.90
2018-02-16T17:25:05.967Z,67.00
2018-02-16T17:27:33.507Z,67.30
2018-02-16T17:30:01.038Z,67.60
2018-02-16T17:32:29.650Z,67.90
2018-02-16T17:34:57.168Z,67.80
2018-02-16T17:37:24.756Z,68.30
2018-02-16T17:39:52.898Z,67.80
2018-02-16T17:42:21.272Z,67.40
2018-02-16T17:44:49.025Z,67.60
2018-02-16T17:47:17.053Z,68.10
2018-02-16T17:49:44.809Z,68.50
2018-02-16T17:52:12.694Z,68.30
2018-02-16T17:54:40.569Z,68.60
2018-02-16T17:57:08.140Z,68.70
2018-02-16T17:59:35.647Z,69.30
2018-02-16T18:02:03.168Z,69.60
2018-02-16T18:04:30.782Z,70.00
2018-02-16T18:06:59.246Z,70.40
2018-02-16T18:09:26.757Z,70.40
2018-02-16T18:11:55.160Z,70.80
2018-02-16T18:14:22.843Z,70.90
2018-02-16T18:16:50.364Z,71.30
2018-02-16T18:19:17.937Z,71.30
2018-02-16T18:21:45.562Z,71.50
2018-02-16T18:24:13.087Z,71.60
2018-02-16T18:26:40.666Z,71.90
2018-02-16T18:29:08.178Z,71.90
2018-02-16T18:31:39.286Z,72.00
2018-02-16T18:34:06.885Z,72.20
2018-02-16T18:36:35.527Z,72.80
2018-02-16T18:39:03.067Z,72.70
2018-02-16T18:41:30.562Z,72.70
2018-02-16T18:43:58.370Z,72.70
2018-02-16T18:46:26.822Z,73.20
2018-02-16T18:48:54.817Z,73.20
2018-02-16T18:51:22.490Z,74.00
2018-02-16T18:53:50.186Z,73.30
2018-02-16T18:56:17.755Z,73.40
2018-02-16T18:58:45.302Z,73.40
2018-02-16T19:01:13.052Z,73.40
2018-02-16T19:03:41.370Z,73.70
2018-02-16T19:06:09.432Z,74.30
2018-02-16T19:08:37.043Z,73.70
2018-02-16T19:11:04.760Z,73.60
2018-02-16T19:13:32.349Z,73.80
2018-02-16T19:15:59.888Z,74.00
2018-02-16T19:18:27.432Z,73.80
2018-02-16T19:20:55.001Z,74.00
2018-02-16T19:23:23.027Z,73.90
2018-02-16T19:25:50.814Z,73.90
2018-02-16T19:28:18.400Z,73.90
2018-02-16T19:30:46.832Z,74.00
2018-02-16T19:33:14.526Z,74.10
2018-02-16T19:35:42.428Z,75.10
2018-02-16T19:38:10.003Z,74.60
2018-02-16T19:40:37.713Z,74.10
2018-02-16T19:43:05.300Z,74.40
2018-02-16T19:45:33.042Z,74.60
2018-02-16T19:48:00.587Z,74.90
2018-02-16T19:50:28.395Z,75.20
2018-02-16T19:52:56.130Z,74.90
2018-02-16T19:55:23.713Z,74.80
2018-02-16T19:57:51.870Z,74.80
2018-02-16T20:00:19.393Z,74.80
2018-02-16T20:02:48.111Z,75.00
2018-02-16T20:05:15.894Z,75.30
2018-02-16T20:07:43.801Z,75.30
2018-02-16T20:10:11.773Z,75.30
2018-02-16T20:12:40.276Z,76.10
2018-02-16T20:15:07.954Z,75.60
2018-02-16T20:17:36.507Z,75.80
2018-02-16T20:20:04.225Z,75.60
2018-02-16T20:22:31.898Z,75.90
2018-02-16T20:24:59.727Z,76.00
2018-02-16T20:27:27.287Z,75.90
2018-02-16T20:29:55.113Z,75.70
2018-02-16T20:32:23.878Z,76.00
2018-02-16T20:34:51.835Z,76.10
2018-02-16T20:37:19.406Z,76.20
2018-02-16T20:39:48.427Z,76.20
2018-02-16T20:42:17.513Z,76.10
2018-02-16T20:44:45.345Z,76.10
2018-02-16T20:47:12.894Z,76.10
2018-02-16T20:49:40.422Z,76.20
2018-02-16T20:52:07.971Z,76.60
2018-02-16T20:54:35.882Z,76.60
2018-02-16T20:57:03.486Z,76.40
2018-02-16T20:59:31.285Z,76.30
2018-02-16T21:01:59.674Z,76.90
2018-02-16T21:04:27.656Z,76.90
2018-02-16T21:06:55.445Z,76.70
2018-02-16T21:09:23.496Z,76.60
2018-02-16T21:11:51.485Z,76.90
2018-02-16T21:14:19.075Z,77.00
2018-02-16T21:16:47.383Z,77.10
2018-02-16T21:19:15.195Z,77.20
2018-02-16T21:21:43.559Z,77.40
2018-02-16T21:24:11.085Z,77.10
2018-02-16T21:26:38.662Z,77.10
2018-02-16T21:29:06.432Z,77.40
2018-02-16T21:31:33.972Z,77.80
2018-02-16T21:34:01.524Z,77.50
2018-02-16T21:36:29.177Z,77.50
2018-02-16T21:38:57.493Z,77.10
2018-02-16T21:41:25.561Z,77.10
2018-02-16T21:43:53.114Z,77.00
2018-02-16T21:46:20.705Z,77.20
2018-02-16T21:48:48.221Z,77.30
2018-02-16T21:51:16.594Z,77.50
2018-02-16T21:53:44.226Z,77.60
2018-02-16T21:56:11.707Z,77.60
2018-02-16T21:58:40.259Z,77.80
2018-02-16T22:01:08.185Z,77.80
2018-02-16T22:03:35.715Z,77.80
2018-02-16T22:06:03.437Z,78.70
2018-02-16T22:08:31.023Z,78.00
2018-02-16T22:10:58.748Z,78.10
2018-02-16T22:13:26.266Z,78.00
2018-02-16T22:15:53.788Z,78.00
2018-02-16T22:18:21.382Z,78.70
2018-02-16T22:20:49.687Z,78.10
2018-02-16T22:23:17.367Z,78.10
2018-02-16T22:25:44.903Z,78.40
2018-02-16T22:28:12.503Z,78.40
2018-02-16T22:30:39.998Z,78.40
2018-02-16T22:33:08.288Z,78.40
2018-02-16T22:35:36.704Z,78.50
2018-02-16T22:38:04.416Z,78.50
2018-02-16T22:40:32.638Z,78.40
2018-02-16T22:43:00.388Z,78.50
2018-02-16T22:45:28.779Z,78.70
2018-02-16T22:47:56.305Z,78.70
2018-02-16T22:50:24.602Z,78.70
2018-02-16T22:52:54.580Z,78.70
2018-02-16T22:55:22.859Z,78.90
2018-02-16T22:57:50.372Z,78.80
2018-02-16T23:00:18.096Z,78.80
2018-02-16T23:02:45.641Z,78.80
2018-02-16T23:05:13.205Z,78.90
2018-02-16T23:07:40.748Z,79.00
2018-02-16T23:10:08.464Z,79.00
2018-02-16T23:12:36.115Z,79.20
2018-02-16T23:15:03.723Z,79.20
2018-02-16T23:17:31.447Z,79.20
2018-02-16T23:19:59.090Z,79.40
2018-02-16T23:22:27.347Z,79.40
2018-02-16T23:24:55.752Z,79.20
2018-02-16T23:27:24.369Z,80.10
2018-02-16T23:29:51.933Z,79.40
2018-02-16T23:32:19.464Z,79.40
2018-02-16T23:34:47.031Z,79.60
2018-02-16T23:37:14.565Z,79.60
2018-02-16T23:39:42.875Z,79.60
2018-02-16T23:42:10.405Z,79.60
2018-02-16T23:44:38.702Z,79.80
2018-02-16T23:47:06.396Z,79.70
2018-02-16T23:49:34.088Z,79.60
2018-02-16T23:52:02.062Z,79.60
2018-02-16T23:54:29.831Z,79.60
2018-02-16T23:56:57.416Z,79.50
2018-02-16T23:59:24.969Z,79.40
